createdAt,value
2022-12-04T00:02:00.088Z,32.07
2022-12-04T00:04:28.535Z,35.63
2022-12-04T00:06:59.137Z,34.00
2022-12-04T00:09:27.828Z,33.37
2022-12-04T00:11:56.219Z,32.70
2022-12-04T00:14:24.496Z,31.90
2022-12-04T00:16:53.035Z,33.13
2022-12-04T00:19:22.759Z,31.60
2022-12-04T00:21:51.788Z,32.00
2022-12-04T00:24:21.598Z,31.57
2022-12-04T00:26:50.023Z,31.90
2022-12-04T00:29:19.056Z,31.73
2022-12-04T00:31:47.557Z,31.10
2022-12-04T00:34:15.919Z,30.90
2022-12-04T00:36:44.626Z,30.80
2022-12-04T00:39:13.601Z,29.77
2022-12-04T00:41:43.434Z,29.03
2022-12-04T00:44:11.815Z,28.53
2022-12-04T00:46:40.098Z,27.60
2022-12-04T00:49:08.473Z,30.30
2022-12-04T00:51:36.821Z,27.77
2022-12-04T00:54:05.435Z,28.53
2022-12-04T00:56:33.671Z,28.63
2022-12-04T00:59:03.533Z,28.13
2022-12-04T01:01:32.375Z,28.60
2022-12-04T01:04:00.835Z,29.50
2022-12-04T01:06:32.117Z,30.80
2022-12-04T01:09:03.574Z,26.77
2022-12-04T01:11:32.593Z,28.13
2022-12-04T01:14:03.158Z,28.87
2022-12-04T01:16:34.969Z,27.77
2022-12-04T01:19:04.091Z,28.03
2022-12-04T01:21:32.690Z,28.63
2022-12-04T01:24:01.223Z,28.63
2022-12-04T01:26:29.649Z,28.47
2022-12-04T01:28:58.485Z,28.97
2022-12-04T01:31:28.831Z,29.83
2022-12-04T01:33:57.248Z,30.37
2022-12-04T01:36:28.100Z,28.23
2022-12-04T01:38:57.326Z,30.27
2022-12-04T01:41:29.169Z,29.57
2022-12-04T01:44:17.924Z,30.87
2022-12-04T01:46:53.673Z,28.70
2022-12-04T01:49:30.453Z,25.23
2022-12-04T01:52:05.721Z,29.93
2022-12-04T01:54:40.474Z,30.37
2022-12-04T01:57:16.046Z,26.63
2022-12-04T01:59:51.122Z,29.97
2022-12-04T02:02:27.874Z,30.40
2022-12-04T02:04:57.510Z,29.10
2022-12-04T02:07:26.139Z,30.43
2022-12-04T02:09:56.293Z,30.93
2022-12-04T02:12:36.395Z,29.43
2022-12-04T02:15:17.579Z,30.03
2022-12-04T02:17:57.333Z,29.40
2022-12-04T02:20:37.890Z,28.87
2022-12-04T02:23:44.983Z,29.60
2022-12-04T02:26:31.996Z,29.13
2022-12-04T02:29:11.018Z,29.87
2022-12-04T02:31:47.432Z,27.03
2022-12-04T02:34:26.927Z,29.47
2022-12-04T02:37:03.541Z,29.73
2022-12-04T02:39:41.270Z,29.77
2022-12-04T02:42:18.809Z,27.13
2022-12-04T02:44:57.048Z,30.30
2022-12-04T02:47:27.850Z,28.63
2022-12-04T02:50:01.298Z,29.60
2022-12-04T02:52:35.011Z,29.70
2022-12-04T02:55:09.372Z,28.27
2022-12-04T02:57:45.446Z,30.50
2022-12-04T03:00:17.524Z,29.33
2022-12-04T03:02:54.333Z,30.20
2022-12-04T03:05:30.526Z,28.67
2022-12-04T03:08:05.664Z,29.30
2022-12-04T03:10:41.247Z,29.77
2022-12-04T03:13:14.936Z,29.70
2022-12-04T03:15:49.304Z,28.83
2022-12-04T03:18:23.636Z,28.07
2022-12-04T03:21:00.759Z,29.77
2022-12-04T03:23:35.785Z,28.90
2022-12-04T03:26:13.772Z,29.93
2022-12-04T03:28:53.899Z,26.87
2022-12-04T03:31:36.172Z,26.83
2022-12-04T03:34:08.733Z,28.97
2022-12-04T03:36:46.278Z,30.07
2022-12-04T03:39:24.051Z,29.90
2022-12-04T03:42:01.189Z,29.47
2022-12-04T03:44:39.267Z,28.20
2022-12-04T03:47:15.705Z,30.67
2022-12-04T03:49:52.048Z,28.43
2022-12-04T03:52:30.909Z,29.17
2022-12-04T03:55:05.362Z,28.93
2022-12-04T03:57:40.591Z,30.10
2022-12-04T04:00:14.616Z,28.33
2022-12-04T04:02:56.133Z,29.40
2022-12-04T04:05:28.525Z,29.70
2022-12-04T04:08:21.919Z,29.40
2022-12-04T04:10:52.608Z,27.60
2022-12-04T04:13:46.272Z,30.00
2022-12-04T04:16:37.074Z,29.07
2022-12-04T04:19:27.395Z,25.50
2022-12-04T04:22:16.993Z,28.53
2022-12-04T04:24:49.730Z,29.23
2022-12-04T04:27:18.139Z,29.07
2022-12-04T04:29:52.028Z,28.73
2022-12-04T04:32:31.522Z,29.23
2022-12-04T04:35:15.384Z,28.77
2022-12-04T04:37:55.999Z,29.03
2022-12-04T04:40:37.329Z,30.00
2022-12-04T04:43:12.764Z,29.97
2022-12-04T04:45:48.364Z,29.30
2022-12-04T04:48:24.640Z,30.03
2022-12-04T04:50:56.205Z,28.30
2022-12-04T04:53:31.105Z,29.40
2022-12-04T04:56:00.626Z,30.90
2022-12-04T04:58:28.941Z,30.47
2022-12-04T05:01:05.537Z,30.53
2022-12-04T05:03:34.096Z,28.93
2022-12-04T05:06:03.769Z,29.57
2022-12-04T05:08:32.117Z,29.07
2022-12-04T05:11:00.604Z,30.47
2022-12-04T05:13:30.603Z,29.47
2022-12-04T05:16:01.113Z,29.87
2022-12-04T05:18:30.645Z,29.10
2022-12-04T05:20:58.304Z,30.53
2022-12-04T05:23:27.923Z,30.63
2022-12-04T05:26:01.609Z,29.07
2022-12-04T05:28:30.020Z,31.47
2022-12-04T05:30:58.560Z,29.03
2022-12-04T05:33:26.974Z,29.53
2022-12-04T05:35:59.793Z,29.63
2022-12-04T05:38:29.843Z,29.50
2022-12-04T05:40:59.846Z,30.10
2022-12-04T05:43:28.909Z,28.37
2022-12-04T05:46:01.683Z,29.13
2022-12-04T05:48:30.109Z,29.47
2022-12-04T05:50:58.506Z,29.93
2022-12-04T05:53:26.745Z,29.87
2022-12-04T05:56:02.522Z,30.57
2022-12-04T05:58:31.181Z,29.33
2022-12-04T06:00:59.500Z,28.47
2022-12-04T06:03:28.036Z,28.67
2022-12-04T06:05:56.373Z,26.87
2022-12-04T06:08:24.656Z,28.93
2022-12-04T06:10:53.015Z,30.77
2022-12-04T06:13:22.605Z,29.30
2022-12-04T06:15:50.966Z,31.77
2022-12-04T06:18:19.262Z,30.50
2022-12-04T06:20:47.559Z,30.33
2022-12-04T06:23:15.868Z,26.70
2022-12-04T06:25:44.179Z,30.20
2022-12-04T06:28:12.400Z,29.50
2022-12-04T06:30:42.000Z,32.27
2022-12-04T06:33:10.331Z,31.00
2022-12-04T06:35:38.633Z,31.27
2022-12-04T06:38:07.939Z,30.83
2022-12-04T06:40:36.145Z,31.33
2022-12-04T06:43:05.341Z,30.73
2022-12-04T06:45:33.854Z,33.50
2022-12-04T06:48:03.494Z,33.40
2022-12-04T06:50:31.719Z,31.87
2022-12-04T06:53:03.595Z,29.63
2022-12-04T06:55:36.272Z,30.03
2022-12-04T06:58:04.545Z,32.57
2022-12-04T07:00:32.813Z,33.13
2022-12-04T07:03:01.197Z,32.50
2022-12-04T07:05:30.829Z,33.23
2022-12-04T07:07:59.118Z,32.50
2022-12-04T07:10:27.702Z,32.27
2022-12-04T07:12:55.939Z,32.23
2022-12-04T07:15:24.199Z,30.17
2022-12-04T07:17:52.430Z,33.13
2022-12-04T07:20:20.797Z,33.57
2022-12-04T07:22:50.373Z,33.40
2022-12-04T07:25:19.711Z,32.83
2022-12-04T07:27:47.990Z,32.40
2022-12-04T07:30:16.825Z,32.07
2022-12-04T07:32:45.162Z,31.73
2022-12-04T07:35:13.789Z,32.83
2022-12-04T07:37:42.073Z,32.00
2022-12-04T07:40:13.834Z,32.60
2022-12-04T07:42:42.112Z,33.50
2022-12-04T07:45:11.528Z,32.97
2022-12-04T07:47:39.859Z,32.03
2022-12-04T07:50:09.301Z,33.07
2022-12-04T07:52:38.446Z,34.80
2022-12-04T07:55:08.513Z,34.63
2022-12-04T07:57:38.190Z,33.43
2022-12-04T08:00:08.419Z,33.13
2022-12-04T08:02:40.326Z,29.53
2022-12-04T08:05:09.188Z,30.37
2022-12-04T08:07:37.533Z,33.03
2022-12-04T08:10:07.675Z,32.47
2022-12-04T08:12:37.295Z,32.43
2022-12-04T08:15:06.756Z,31.73
2022-12-04T08:17:35.054Z,33.13
2022-12-04T08:20:03.277Z,32.80
2022-12-04T08:22:31.549Z,31.57
2022-12-04T08:24:59.763Z,34.10
2022-12-04T08:27:27.984Z,30.23
2022-12-04T08:29:57.813Z,32.87
2022-12-04T08:32:26.517Z,33.13
2022-12-04T08:34:57.798Z,31.40
2022-12-04T08:37:27.563Z,32.40
2022-12-04T08:39:56.054Z,35.40
2022-12-04T08:42:24.437Z,34.07
2022-12-04T08:44:52.683Z,34.37
2022-12-04T08:47:22.309Z,32.40
2022-12-04T08:49:50.638Z,33.50
2022-12-04T08:52:19.081Z,31.43
2022-12-04T08:54:47.512Z,33.87
2022-12-04T08:57:15.749Z,31.80
2022-12-04T08:59:43.974Z,32.93
2022-12-04T09:02:12.939Z,33.17
2022-12-04T09:04:42.560Z,33.23
2022-12-04T09:07:11.032Z,34.87
2022-12-04T09:09:43.541Z,32.40
2022-12-04T09:12:14.872Z,34.37
2022-12-04T09:14:43.129Z,33.00
2022-12-04T09:17:11.545Z,31.83
2022-12-04T09:19:39.784Z,33.87
2022-12-04T09:22:09.392Z,27.30
2022-12-04T09:24:37.786Z,33.50
2022-12-04T09:27:11.290Z,31.70
2022-12-04T09:29:42.630Z,33.53
2022-12-04T09:32:10.898Z,32.83
2022-12-04T09:34:39.268Z,32.33
2022-12-04T09:37:08.981Z,33.13
2022-12-04T09:39:37.412Z,30.83
2022-12-04T09:42:30.101Z,31.43
2022-12-04T09:45:08.458Z,31.73
2022-12-04T09:47:43.822Z,33.03
2022-12-04T09:50:21.548Z,31.27
2022-12-04T09:53:00.633Z,30.53
2022-12-04T09:55:35.832Z,34.10
2022-12-04T09:58:12.182Z,31.77
2022-12-04T10:00:45.415Z,31.10
2022-12-04T10:03:18.995Z,31.90
2022-12-04T10:05:58.945Z,30.60
2022-12-04T10:08:31.577Z,28.17
2022-12-04T10:11:13.471Z,31.10
2022-12-04T10:14:11.519Z,30.90
2022-12-04T10:16:58.569Z,30.77
2022-12-04T10:19:37.958Z,29.23
2022-12-04T10:22:17.768Z,29.53
2022-12-04T10:24:53.592Z,27.27
2022-12-04T10:27:26.848Z,29.33
2022-12-04T10:30:03.236Z,27.77
2022-12-04T10:32:34.531Z,28.87
2022-12-04T10:35:20.558Z,29.33
2022-12-04T10:37:55.137Z,29.77
2022-12-04T10:40:33.599Z,30.73
2022-12-04T10:43:15.136Z,29.77
2022-12-04T10:45:44.055Z,30.27
2022-12-04T10:48:24.187Z,30.53
2022-12-04T10:50:52.593Z,30.63
2022-12-04T10:53:31.916Z,29.87
2022-12-04T10:56:13.349Z,29.13
2022-12-04T10:58:42.214Z,30.13
2022-12-04T11:01:15.498Z,30.27
2022-12-04T11:03:48.434Z,28.03
2022-12-04T11:06:16.929Z,29.60
2022-12-04T11:08:51.874Z,29.43
2022-12-04T11:11:28.910Z,30.03
2022-12-04T11:14:13.817Z,28.57
2022-12-04T11:16:45.478Z,30.57
2022-12-04T11:19:27.257Z,30.13
2022-12-04T11:21:59.487Z,28.40
2022-12-04T11:24:33.176Z,30.50
2022-12-04T11:27:05.718Z,31.20
2022-12-04T11:29:39.143Z,30.40
2022-12-04T11:32:18.121Z,28.57
2022-12-04T11:34:47.439Z,31.20
2022-12-04T11:37:23.465Z,28.10
2022-12-04T11:39:53.506Z,24.60
2022-12-04T11:42:28.583Z,27.47
2022-12-04T11:44:59.211Z,28.33
2022-12-04T11:47:31.596Z,29.10
2022-12-04T11:50:27.586Z,29.20
2022-12-04T11:53:11.290Z,28.73
2022-12-04T11:56:11.289Z,28.47
2022-12-04T11:59:13.537Z,28.20
2022-12-04T12:01:51.002Z,23.03
2022-12-04T12:05:04.349Z,28.83
2022-12-04T12:07:58.962Z,28.63
2022-12-04T12:10:44.608Z,28.43
2022-12-04T12:13:26.874Z,28.40
2022-12-04T12:16:10.698Z,27.33
2022-12-04T12:19:09.891Z,25.50
2022-12-04T12:21:46.647Z,26.97
2022-12-04T12:24:27.931Z,27.60
2022-12-04T12:27:17.142Z,28.37
2022-12-04T12:30:03.832Z,23.40
2022-12-04T12:32:54.403Z,28.03
2022-12-04T12:35:30.538Z,24.93
2022-12-04T12:38:03.819Z,26.67
2022-12-04T12:40:38.355Z,27.83
2022-12-04T12:43:14.691Z,24.13
2022-12-04T12:45:53.792Z,24.80
2022-12-04T12:48:33.376Z,26.70
2022-12-04T12:51:29.105Z,27.20
2022-12-04T12:54:14.338Z,25.20
2022-12-04T12:56:50.752Z,25.97
2022-12-04T12:59:23.506Z,26.57
2022-12-04T13:02:01.181Z,24.67
2022-12-04T13:04:41.507Z,24.60
2022-12-04T13:07:14.011Z,22.20
2022-12-04T13:09:49.467Z,23.47
2022-12-04T13:12:21.636Z,24.60
2022-12-04T13:14:50.473Z,26.70
2022-12-04T13:17:26.668Z,24.67
2022-12-04T13:20:03.065Z,25.23
2022-12-04T13:22:51.086Z,24.37
2022-12-04T13:25:49.287Z,24.20
2022-12-04T13:28:37.975Z,22.70
2022-12-04T13:31:24.994Z,24.40
2022-12-04T13:34:19.010Z,22.97
2022-12-04T13:37:22.756Z,21.57
2022-12-04T13:40:31.553Z,22.87
2022-12-04T13:43:25.797Z,23.10
2022-12-04T13:45:57.772Z,22.07
2022-12-04T13:48:36.395Z,22.73
2022-12-04T13:51:36.124Z,21.60
2022-12-04T13:54:29.783Z,24.40
2022-12-04T13:57:17.289Z,21.77
2022-12-04T13:59:47.499Z,22.27
2022-12-04T14:02:37.681Z,22.50
2022-12-04T14:05:10.222Z,22.70
2022-12-04T14:07:43.659Z,22.37
2022-12-04T14:10:30.605Z,22.60
2022-12-04T14:13:03.497Z,22.17
2022-12-04T14:15:35.544Z,19.50
2022-12-04T14:18:18.508Z,27.07
2022-12-04T14:20:57.951Z,21.63
2022-12-04T14:23:36.211Z,23.17
2022-12-04T14:26:06.764Z,22.87
2022-12-04T14:28:45.082Z,23.03
2022-12-04T14:31:35.418Z,23.27
2022-12-04T14:34:21.156Z,23.73
2022-12-04T14:36:53.108Z,21.70
2022-12-04T14:39:28.211Z,24.00
2022-12-04T14:42:14.730Z,22.60
2022-12-04T14:44:46.372Z,23.57
2022-12-04T14:47:28.873Z,25.27
2022-12-04T14:50:17.518Z,24.20
2022-12-04T14:52:53.645Z,23.53
2022-12-04T14:55:33.803Z,26.73
2022-12-04T14:58:27.172Z,24.80
2022-12-04T15:00:59.887Z,26.77
2022-12-04T15:03:30.725Z,20.97
2022-12-04T15:06:09.510Z,22.37
2022-12-04T15:08:37.849Z,26.33
2022-12-04T15:11:25.758Z,24.80
2022-12-04T15:13:55.497Z,27.90
2022-12-04T15:16:24.366Z,28.13
2022-12-04T15:18:57.466Z,27.97
2022-12-04T15:21:35.340Z,28.03
2022-12-04T15:24:09.072Z,27.80
2022-12-04T15:26:39.783Z,27.07
2022-12-04T15:29:18.852Z,27.83
2022-12-04T15:31:56.517Z,22.20
2022-12-04T15:34:35.399Z,27.90
2022-12-04T15:37:10.061Z,25.33
2022-12-04T15:39:38.852Z,26.90
2022-12-04T15:42:17.378Z,25.47
2022-12-04T15:45:00.790Z,28.17
2022-12-04T15:47:31.185Z,23.13
2022-12-04T15:50:11.078Z,25.53
2022-12-04T15:52:49.993Z,26.37
2022-12-04T15:55:20.783Z,26.83
2022-12-04T15:57:55.513Z,27.27
2022-12-04T16:00:30.835Z,27.37
2022-12-04T16:03:00.761Z,26.23
2022-12-04T16:05:35.333Z,20.03
2022-12-04T16:08:24.627Z,27.90
2022-12-04T16:11:05.100Z,27.20
2022-12-04T16:13:37.254Z,27.47
2022-12-04T16:16:13.245Z,27.47
2022-12-04T16:18:43.124Z,20.73
2022-12-04T16:21:17.372Z,26.00
2022-12-04T16:23:46.228Z,26.67
2022-12-04T16:26:16.638Z,25.57
2022-12-04T16:28:45.645Z,25.77
2022-12-04T16:31:17.804Z,27.67
2022-12-04T16:33:46.488Z,27.20
2022-12-04T16:36:14.836Z,25.27
2022-12-04T16:38:43.227Z,26.50
2022-12-04T16:41:16.084Z,27.47
2022-12-04T16:43:44.732Z,23.90
2022-12-04T16:46:17.445Z,25.10
2022-12-04T16:48:45.904Z,27.80
2022-12-04T16:51:18.437Z,24.10
2022-12-04T16:53:47.162Z,26.07
2022-12-04T16:56:15.492Z,24.43
2022-12-04T16:58:44.497Z,25.83
2022-12-04T17:01:22.813Z,22.73
2022-12-04T17:03:51.856Z,27.27
2022-12-04T17:06:20.503Z,25.27
2022-12-04T17:08:48.757Z,24.73
2022-12-04T17:11:18.665Z,25.20
2022-12-04T17:13:47.013Z,27.57
2022-12-04T17:16:19.717Z,26.30
2022-12-04T17:18:48.332Z,25.93
2022-12-04T17:21:16.733Z,25.90
2022-12-04T17:23:45.755Z,25.90
2022-12-04T17:26:16.106Z,26.67
2022-12-04T17:28:44.717Z,22.60
2022-12-04T17:31:20.792Z,26.70
2022-12-04T17:33:49.573Z,26.40
2022-12-04T17:36:21.395Z,26.53
2022-12-04T17:38:54.332Z,27.43
2022-12-04T17:41:22.816Z,24.47
2022-12-04T17:43:51.525Z,24.87
2022-12-04T17:46:24.450Z,24.20
2022-12-04T17:48:56.217Z,25.90
2022-12-04T17:51:26.351Z,21.93
2022-12-04T17:53:54.840Z,26.03
2022-12-04T17:56:25.092Z,21.43
2022-12-04T17:58:54.325Z,20.63
2022-12-04T18:01:26.818Z,24.47
2022-12-04T18:03:57.555Z,24.27
2022-12-04T18:06:30.186Z,24.37
2022-12-04T18:08:59.146Z,21.93
2022-12-04T18:11:30.068Z,24.43
2022-12-04T18:14:01.359Z,24.17
2022-12-04T18:16:34.989Z,23.63
2022-12-04T18:19:05.051Z,22.47
2022-12-04T18:21:34.897Z,20.23
2022-12-04T18:24:05.249Z,16.10
2022-12-04T18:26:36.108Z,19.67
2022-12-04T18:29:04.735Z,21.23
2022-12-04T18:31:34.930Z,21.10
2022-12-04T18:34:03.307Z,24.57
2022-12-04T18:36:33.009Z,23.20
2022-12-04T18:39:03.930Z,21.90
2022-12-04T18:41:33.072Z,21.40
2022-12-04T18:44:02.881Z,20.93
2022-12-04T18:46:32.857Z,22.13
2022-12-04T18:49:03.236Z,22.37
2022-12-04T18:51:34.616Z,21.63
2022-12-04T18:54:05.816Z,21.53
2022-12-04T18:56:36.335Z,22.73
2022-12-04T18:59:08.026Z,21.90
2022-12-04T19:01:36.739Z,21.13
2022-12-04T19:04:10.190Z,22.70
2022-12-04T19:06:41.270Z,23.13
2022-12-04T19:09:13.037Z,21.47
2022-12-04T19:11:42.309Z,22.37
2022-12-04T19:14:22.490Z,23.20
2022-12-04T19:16:52.389Z,22.63
2022-12-04T19:19:22.079Z,21.90
2022-12-04T19:21:50.394Z,22.13
2022-12-04T19:24:19.010Z,22.23
2022-12-04T19:26:47.953Z,21.67
2022-12-04T19:29:16.337Z,23.13
2022-12-04T19:31:44.853Z,23.03
2022-12-04T19:34:13.276Z,22.30
2022-12-04T19:36:45.319Z,23.10
2022-12-04T19:39:13.750Z,23.73
2022-12-04T19:41:42.091Z,20.00
2022-12-04T19:44:46.828Z,22.03
2022-12-04T19:47:00.284Z,22.60
2022-12-04T19:49:29.003Z,20.30
2022-12-04T19:51:58.743Z,21.57
2022-12-04T19:54:28.076Z,21.20
2022-12-04T19:56:56.422Z,22.23
2022-12-04T19:59:24.956Z,22.73
2022-12-04T20:01:53.570Z,21.70
2022-12-04T20:04:22.056Z,22.13
2022-12-04T20:06:50.390Z,24.43
2022-12-04T20:09:23.169Z,21.13
2022-12-04T20:11:52.262Z,22.33
2022-12-04T20:14:20.686Z,24.07
2022-12-04T20:16:49.059Z,22.97
2022-12-04T20:19:20.057Z,23.13
2022-12-04T20:21:48.484Z,23.63
2022-12-04T20:24:18.574Z,22.37
2022-12-04T20:26:48.622Z,23.03
2022-12-04T20:29:19.057Z,23.53
2022-12-04T20:31:48.499Z,22.47
2022-12-04T20:34:20.046Z,21.67
2022-12-04T20:36:49.819Z,23.20
2022-12-04T20:39:20.416Z,21.60
2022-12-04T20:41:50.314Z,25.13
2022-12-04T20:44:20.428Z,24.07
2022-12-04T20:46:51.993Z,24.47
2022-12-04T20:49:22.324Z,24.57
2022-12-04T20:51:52.878Z,25.10
2022-12-04T20:54:23.809Z,23.90
2022-12-04T20:56:54.217Z,25.03
2022-12-04T20:59:25.167Z,23.47
2022-12-04T21:01:54.710Z,22.23
2022-12-04T21:04:23.975Z,21.80
2022-12-04T21:06:52.408Z,21.87
2022-12-04T21:09:26.669Z,28.17
2022-12-04T21:11:56.934Z,23.53
2022-12-04T21:14:46.528Z,22.47
2022-12-04T21:17:18.789Z,22.20
2022-12-04T21:19:49.512Z,22.37
2022-12-04T21:22:20.100Z,23.03
2022-12-04T21:24:49.139Z,21.33
2022-12-04T21:27:21.239Z,24.60
2022-12-04T21:29:50.521Z,23.30
2022-12-04T21:32:20.672Z,24.23
2022-12-04T21:34:49.370Z,25.50
2022-12-04T21:37:17.712Z,26.00
2022-12-04T21:39:46.103Z,27.00
2022-12-04T21:42:32.938Z,25.00
2022-12-04T21:45:05.987Z,25.83
2022-12-04T21:47:36.317Z,26.20
2022-12-04T21:50:06.356Z,26.03
2022-12-04T21:52:34.783Z,26.37
2022-12-04T21:55:03.317Z,27.30
2022-12-04T21:57:31.802Z,26.47
2022-12-04T22:00:00.419Z,27.03
2022-12-04T22:02:30.425Z,26.03
2022-12-04T22:04:58.727Z,26.90
2022-12-04T22:07:27.092Z,27.40
2022-12-04T22:09:55.632Z,26.30
2022-12-04T22:12:48.585Z,23.77
2022-12-04T22:15:13.273Z,23.80
2022-12-04T22:17:43.127Z,24.00
2022-12-04T22:20:11.978Z,23.90
2022-12-04T22:22:40.292Z,23.57
2022-12-04T22:25:09.657Z,24.70
2022-12-04T22:27:38.008Z,25.33
2022-12-04T22:30:08.710Z,23.30
2022-12-04T22:32:37.089Z,24.40
2022-12-04T22:35:07.748Z,24.57
2022-12-04T22:37:41.094Z,22.40
2022-12-04T22:40:14.643Z,23.73
2022-12-04T22:42:43.706Z,24.37
2022-12-04T22:45:12.903Z,25.07
2022-12-04T22:47:41.755Z,23.53
2022-12-04T22:50:12.847Z,25.13
2022-12-04T22:52:41.167Z,24.20
2022-12-04T22:55:10.085Z,21.10
2022-12-04T22:57:38.368Z,24.70
2022-12-04T23:00:09.451Z,24.40
2022-12-04T23:02:38.001Z,24.40
2022-12-04T23:05:06.683Z,22.40
2022-12-04T23:07:37.326Z,19.30
2022-12-04T23:10:09.091Z,20.43
2022-12-04T23:12:37.458Z,22.00
2022-12-04T23:15:07.334Z,25.17
2022-12-04T23:17:35.995Z,24.10
2022-12-04T23:20:05.256Z,21.43
2022-12-04T23:22:33.981Z,24.13
2022-12-04T23:25:03.999Z,24.87
2022-12-04T23:27:32.867Z,23.53
2022-12-04T23:30:01.248Z,22.40
2022-12-04T23:32:30.990Z,24.07
2022-12-04T23:34:59.365Z,23.57
2022-12-04T23:37:27.658Z,23.50
2022-12-04T23:39:56.418Z,20.90
2022-12-04T23:42:26.418Z,24.33
2022-12-04T23:44:54.730Z,21.13
2022-12-04T23:47:23.161Z,21.90
2022-12-04T23:49:51.887Z,22.33
2022-12-04T23:52:20.281Z,19.73
2022-12-04T23:54:48.589Z,22.03
2022-12-04T23:57:16.961Z,21.70
2022-12-04T23:59:46.631Z,20.17
